sensor_id;sensor_type;location;lat;lon;timestamp;temperature;humidity
21255;DHT22;10785;50.674;17.954;2022-12-07T00:01:56;2.90;99.90
21255;DHT22;10785;50.674;17.954;2022-12-07T00:04:25;2.90;99.90
21255;DHT22;10785;50.674;17.954;2022-12-07T00:06:53;2.90;99.90
21255;DHT22;10785;50.674;17.954;2022-12-07T00:09:23;2.90;99.90
21255;DHT22;10785;50.674;17.954;2022-12-07T00:11:52;2.90;99.90
21255;DHT22;10785;50.674;17.954;2022-12-07T00:14:21;2.90;99.90
21255;DHT22;10785;50.674;17.954;2022-12-07T00:16:51;2.90;99.90
21255;DHT22;10785;50.674;17.954;2022-12-07T00:19:19;2.90;99.90
21255;DHT22;10785;50.674;17.954;2022-12-07T00:21:48;3.00;99.90
21255;DHT22;10785;50.674;17.954;2022-12-07T00:24:17;3.00;99.90
21255;DHT22;10785;50.674;17.954;2022-12-07T00:26:46;2.90;99.90
21255;DHT22;10785;50.674;17.954;2022-12-07T00:29:17;2.90;99.90
21255;DHT22;10785;50.674;17.954;2022-12-07T00:31:46;3.00;99.90
21255;DHT22;10785;50.674;17.954;2022-12-07T00:34:16;2.90;99.90
21255;DHT22;10785;50.674;17.954;2022-12-07T00:36:45;2.90;99.90
21255;DHT22;10785;50.674;17.954;2022-12-07T00:39:14;2.90;99.90
21255;DHT22;10785;50.674;17.954;2022-12-07T00:41:43;2.90;99.90
21255;DHT22;10785;50.674;17.954;2022-12-07T00:44:13;2.90;99.90
21255;DHT22;10785;50.674;17.954;2022-12-07T00:46:42;3.00;99.90
21255;DHT22;10785;50.674;17.954;2022-12-07T00:49:12;3.00;99.90
21255;DHT22;10785;50.674;17.954;2022-12-07T00:51:41;2.90;99.90
21255;DHT22;10785;50.674;17.954;2022-12-07T00:54:09;2.90;99.90
21255;DHT22;10785;50.674;17.954;2022-12-07T00:56:38;2.90;99.90
21255;DHT22;10785;50.674;17.954;2022-12-07T00:59:06;2.90;99.90
21255;DHT22;10785;50.674;17.954;2022-12-07T01:01:36;2.90;99.90
21255;DHT22;10785;50.674;17.954;2022-12-07T01:04:06;2.90;99.90
21255;DHT22;10785;50.674;17.954;2022-12-07T01:06:34;2.90;99.90
21255;DHT22;10785;50.674;17.954;2022-12-07T01:09:03;3.00;99.90
21255;DHT22;10785;50.674;17.954;2022-12-07T01:11:33;3.00;99.90
21255;DHT22;10785;50.674;17.954;2022-12-07T01:14:02;3.00;99.90
21255;DHT22;10785;50.674;17.954;2022-12-07T01:16:31;3.00;99.90
21255;DHT22;10785;50.674;17.954;2022-12-07T01:19:02;3.00;99.90
21255;DHT22;10785;50.674;17.954;2022-12-07T01:21:34;2.90;99.90
21255;DHT22;10785;50.674;17.954;2022-12-07T01:24:07;2.90;99.90
21255;DHT22;10785;50.674;17.954;2022-12-07T01:26:36;2.90;99.90
21255;DHT22;10785;50.674;17.954;2022-12-07T01:29:04;2.90;99.90
21255;DHT22;10785;50.674;17.954;2022-12-07T01:31:33;2.90;99.90
21255;DHT22;10785;50.674;17.954;2022-12-07T01:34:03;2.90;99.90
21255;DHT22;10785;50.674;17.954;2022-12-07T01:36:34;2.90;99.90
21255;DHT22;10785;50.674;17.954;2022-12-07T01:39:05;2.90;99.90
21255;DHT22;10785;50.674;17.954;2022-12-07T01:41:36;2.90;99.90
21255;DHT22;10785;50.674;17.954;2022-12-07T01:44:13;2.90;99.90
21255;DHT22;10785;50.674;17.954;2022-12-07T01:46:44;2.90;99.90
21255;DHT22;10785;50.674;17.954;2022-12-07T01:49:25;2.90;99.90
21255;DHT22;10785;50.674;17.954;2022-12-07T01:51:58;2.90;99.90
21255;DHT22;10785;50.674;17.954;2022-12-07T01:54:29;2.90;99.90
21255;DHT22;10785;50.674;17.954;2022-12-07T01:56:58;2.90;99.90
21255;DHT22;10785;50.674;17.954;2022-12-07T01:59:27;2.90;99.90
21255;DHT22;10785;50.674;17.954;2022-12-07T02:01:57;2.90;99.90
21255;DHT22;10785;50.674;17.954;2022-12-07T02:04:27;2.90;99.90
21255;DHT22;10785;50.674;17.954;2022-12-07T02:06:57;2.80;99.90
21255;DHT22;10785;50.674;17.954;2022-12-07T02:09:26;2.70;99.90
21255;DHT22;10785;50.674;17.954;2022-12-07T02:11:55;2.70;99.90
21255;DHT22;10785;50.674;17.954;2022-12-07T02:14:24;2.60;99.90
21255;DHT22;10785;50.674;17.954;2022-12-07T02:17:02;2.60;99.90
21255;DHT22;10785;50.674;17.954;2022-12-07T02:20:11;2.60;99.90
21255;DHT22;10785;50.674;17.954;2022-12-07T02:23:00;2.60;99.90
21255;DHT22;10785;50.674;17.954;2022-12-07T02:25:45;2.60;99.90
21255;DHT22;10785;50.674;17.954;2022-12-07T02:28:28;2.60;99.90
21255;DHT22;10785;50.674;17.954;2022-12-07T02:31:04;2.60;99.90
21255;DHT22;10785;50.674;17.954;2022-12-07T02:33:37;2.60;99.90
21255;DHT22;10785;50.674;17.954;2022-12-07T02:36:12;2.60;99.90
21255;DHT22;10785;50.674;17.954;2022-12-07T02:38:47;2.70;99.90
21255;DHT22;10785;50.674;17.954;2022-12-07T02:41:22;2.60;99.90
21255;DHT22;10785;50.674;17.954;2022-12-07T02:43:54;2.60;99.90
21255;DHT22;10785;50.674;17.954;2022-12-07T02:46:28;2.60;99.90
21255;DHT22;10785;50.674;17.954;2022-12-07T02:48:58;2.50;99.90
21255;DHT22;10785;50.674;17.954;2022-12-07T02:51:30;2.60;99.90
21255;DHT22;10785;50.674;17.954;2022-12-07T02:53:59;2.50;99.90
21255;DHT22;10785;50.674;17.954;2022-12-07T02:56:34;2.50;99.90
21255;DHT22;10785;50.674;17.954;2022-12-07T02:59:17;2.50;99.90
21255;DHT22;10785;50.674;17.954;2022-12-07T03:01:55;2.50;99.90
21255;DHT22;10785;50.674;17.954;2022-12-07T03:04:36;2.50;99.90
21255;DHT22;10785;50.674;17.954;2022-12-07T03:07:14;2.50;99.90
21255;DHT22;10785;50.674;17.954;2022-12-07T03:09:51;2.50;99.90
21255;DHT22;10785;50.674;17.954;2022-12-07T03:12:26;2.50;99.90
21255;DHT22;10785;50.674;17.954;2022-12-07T03:15:01;2.50;99.90
21255;DHT22;10785;50.674;17.954;2022-12-07T03:17:35;2.50;99.90
21255;DHT22;10785;50.674;17.954;2022-12-07T03:20:10;2.50;99.90
21255;DHT22;10785;50.674;17.954;2022-12-07T03:22:41;2.50;99.90
21255;DHT22;10785;50.674;17.954;2022-12-07T03:25:12;2.50;99.90
21255;DHT22;10785;50.674;17.954;2022-12-07T03:27:45;2.50;99.90
21255;DHT22;10785;50.674;17.954;2022-12-07T03:30:18;2.50;99.90
21255;DHT22;10785;50.674;17.954;2022-12-07T03:32:53;2.50;99.90
21255;DHT22;10785;50.674;17.954;2022-12-07T03:35:28;2.50;99.90
21255;DHT22;10785;50.674;17.954;2022-12-07T03:37:59;2.50;99.90
21255;DHT22;10785;50.674;17.954;2022-12-07T03:40:32;2.40;99.90
21255;DHT22;10785;50.674;17.954;2022-12-07T03:43:03;2.50;99.90
21255;DHT22;10785;50.674;17.954;2022-12-07T03:45:38;2.40;99.90
21255;DHT22;10785;50.674;17.954;2022-12-07T03:48:13;2.40;99.90
21255;DHT22;10785;50.674;17.954;2022-12-07T03:50:50;2.50;99.90
21255;DHT22;10785;50.674;17.954;2022-12-07T03:53:24;2.40;99.90
21255;DHT22;10785;50.674;17.954;2022-12-07T03:55:56;2.40;99.90
21255;DHT22;10785;50.674;17.954;2022-12-07T03:58:25;2.40;99.90
21255;DHT22;10785;50.674;17.954;2022-12-07T04:00:55;2.40;99.90
21255;DHT22;10785;50.674;17.954;2022-12-07T04:03:25;2.40;99.90
21255;DHT22;10785;50.674;17.954;2022-12-07T04:05:54;2.40;99.90
21255;DHT22;10785;50.674;17.954;2022-12-07T04:08:22;2.40;99.90
21255;DHT22;10785;50.674;17.954;2022-12-07T04:10:51;2.40;99.90
21255;DHT22;10785;50.674;17.954;2022-12-07T04:13:20;2.50;99.90
21255;DHT22;10785;50.674;17.954;2022-12-07T04:15:48;2.40;99.90
21255;DHT22;10785;50.674;17.954;2022-12-07T04:18:17;2.40;99.90
21255;DHT22;10785;50.674;17.954;2022-12-07T04:20:47;2.50;99.90
21255;DHT22;10785;50.674;17.954;2022-12-07T04:23:16;2.40;99.90
21255;DHT22;10785;50.674;17.954;2022-12-07T04:25:47;2.50;99.90
21255;DHT22;10785;50.674;17.954;2022-12-07T04:28:16;2.50;99.90
21255;DHT22;10785;50.674;17.954;2022-12-07T04:30:45;2.50;99.90
21255;DHT22;10785;50.674;17.954;2022-12-07T04:33:14;2.50;99.90
21255;DHT22;10785;50.674;17.954;2022-12-07T04:35:43;2.50;99.90
21255;DHT22;10785;50.674;17.954;2022-12-07T04:38:12;2.40;99.90
21255;DHT22;10785;50.674;17.954;2022-12-07T04:40:41;2.50;99.90
21255;DHT22;10785;50.674;17.954;2022-12-07T04:43:10;2.40;99.90
21255;DHT22;10785;50.674;17.954;2022-12-07T04:45:38;2.40;99.90
21255;DHT22;10785;50.674;17.954;2022-12-07T04:48:07;2.50;99.90
21255;DHT22;10785;50.674;17.954;2022-12-07T04:50:36;2.50;99.90
21255;DHT22;10785;50.674;17.954;2022-12-07T04:53:13;2.50;99.90
21255;DHT22;10785;50.674;17.954;2022-12-07T04:55:42;2.60;99.90
21255;DHT22;10785;50.674;17.954;2022-12-07T04:58:11;2.50;99.90
21255;DHT22;10785;50.674;17.954;2022-12-07T05:00:40;2.50;99.90
21255;DHT22;10785;50.674;17.954;2022-12-07T05:03:08;2.50;99.90
21255;DHT22;10785;50.674;17.954;2022-12-07T05:05:40;2.50;99.90
21255;DHT22;10785;50.674;17.954;2022-12-07T05:08:08;2.40;99.90
21255;DHT22;10785;50.674;17.954;2022-12-07T05:10:39;2.50;99.90
21255;DHT22;10785;50.674;17.954;2022-12-07T05:13:07;2.40;99.90
21255;DHT22;10785;50.674;17.954;2022-12-07T05:15:36;2.50;99.90
21255;DHT22;10785;50.674;17.954;2022-12-07T05:18:04;2.40;99.90
21255;DHT22;10785;50.674;17.954;2022-12-07T05:20:33;2.40;99.90
21255;DHT22;10785;50.674;17.954;2022-12-07T05:23:08;2.40;99.90
21255;DHT22;10785;50.674;17.954;2022-12-07T05:25:39;2.50;99.90
21255;DHT22;10785;50.674;17.954;2022-12-07T05:28:07;2.40;99.90
21255;DHT22;10785;50.674;17.954;2022-12-07T05:30:36;2.40;99.90
21255;DHT22;10785;50.674;17.954;2022-12-07T05:33:05;2.40;99.90
21255;DHT22;10785;50.674;17.954;2022-12-07T05:35:33;2.40;99.90
21255;DHT22;10785;50.674;17.954;2022-12-07T05:38:02;2.40;99.90
21255;DHT22;10785;50.674;17.954;2022-12-07T05:40:31;2.40;99.90
21255;DHT22;10785;50.674;17.954;2022-12-07T05:43:01;2.40;99.90
21255;DHT22;10785;50.674;17.954;2022-12-07T05:45:31;2.50;99.90
21255;DHT22;10785;50.674;17.954;2022-12-07T05:47:59;2.50;99.90
21255;DHT22;10785;50.674;17.954;2022-12-07T05:50:28;2.50;99.90
21255;DHT22;10785;50.674;17.954;2022-12-07T05:53:00;2.40;99.90
21255;DHT22;10785;50.674;17.954;2022-12-07T05:55:28;2.50;99.90
21255;DHT22;10785;50.674;17.954;2022-12-07T05:57:57;2.50;99.90
21255;DHT22;10785;50.674;17.954;2022-12-07T06:00:45;2.50;99.90
21255;DHT22;10785;50.674;17.954;2022-12-07T06:03:17;2.50;99.90
21255;DHT22;10785;50.674;17.954;2022-12-07T06:05:46;2.50;99.90
21255;DHT22;10785;50.674;17.954;2022-12-07T06:08:15;2.50;99.90
21255;DHT22;10785;50.674;17.954;2022-12-07T06:10:43;2.50;99.90
21255;DHT22;10785;50.674;17.954;2022-12-07T06:13:12;2.40;99.90
21255;DHT22;10785;50.674;17.954;2022-12-07T06:15:39;2.40;99.90
21255;DHT22;10785;50.674;17.954;2022-12-07T06:18:09;2.40;99.90
21255;DHT22;10785;50.674;17.954;2022-12-07T06:20:38;2.40;99.90
21255;DHT22;10785;50.674;17.954;2022-12-07T06:23:06;2.40;99.90
21255;DHT22;10785;50.674;17.954;2022-12-07T06:25:35;2.40;99.90
21255;DHT22;10785;50.674;17.954;2022-12-07T06:28:04;2.40;99.90
21255;DHT22;10785;50.674;17.954;2022-12-07T06:30:32;2.40;99.90
21255;DHT22;10785;50.674;17.954;2022-12-07T06:33:01;2.40;99.90
21255;DHT22;10785;50.674;17.954;2022-12-07T06:35:32;2.40;99.90
21255;DHT22;10785;50.674;17.954;2022-12-07T06:38:01;2.40;99.90
21255;DHT22;10785;50.674;17.954;2022-12-07T06:40:29;2.40;99.90
21255;DHT22;10785;50.674;17.954;2022-12-07T06:42:58;2.40;99.90
21255;DHT22;10785;50.674;17.954;2022-12-07T06:45:26;2.40;99.90
21255;DHT22;10785;50.674;17.954;2022-12-07T06:47:55;2.40;99.90
21255;DHT22;10785;50.674;17.954;2022-12-07T06:50:24;2.40;99.90
21255;DHT22;10785;50.674;17.954;2022-12-07T06:52:54;2.40;99.90
21255;DHT22;10785;50.674;17.954;2022-12-07T06:55:23;2.50;99.90
21255;DHT22;10785;50.674;17.954;2022-12-07T06:57:51;2.50;99.90
21255;DHT22;10785;50.674;17.954;2022-12-07T07:00:20;2.50;99.90
21255;DHT22;10785;50.674;17.954;2022-12-07T07:02:49;2.50;99.90
21255;DHT22;10785;50.674;17.954;2022-12-07T07:05:18;2.50;99.90
21255;DHT22;10785;50.674;17.954;2022-12-07T07:07:48;2.50;99.90
21255;DHT22;10785;50.674;17.954;2022-12-07T07:10:39;2.50;99.90
21255;DHT22;10785;50.674;17.954;2022-12-07T07:13:07;2.60;99.90
21255;DHT22;10785;50.674;17.954;2022-12-07T07:15:37;2.60;99.90
21255;DHT22;10785;50.674;17.954;2022-12-07T07:18:06;2.60;99.90
21255;DHT22;10785;50.674;17.954;2022-12-07T07:20:35;2.60;99.90
21255;DHT22;10785;50.674;17.954;2022-12-07T07:23:04;2.60;99.90
21255;DHT22;10785;50.674;17.954;2022-12-07T07:25:33;2.60;99.90
21255;DHT22;10785;50.674;17.954;2022-12-07T07:28:03;2.70;99.90
21255;DHT22;10785;50.674;17.954;2022-12-07T07:30:32;2.70;99.90
21255;DHT22;10785;50.674;17.954;2022-12-07T07:33:01;2.70;99.90
21255;DHT22;10785;50.674;17.954;2022-12-07T07:35:31;2.70;99.90
21255;DHT22;10785;50.674;17.954;2022-12-07T07:38:01;2.80;99.90
21255;DHT22;10785;50.674;17.954;2022-12-07T07:40:30;2.80;99.90
21255;DHT22;10785;50.674;17.954;2022-12-07T07:42:58;2.80;99.90
21255;DHT22;10785;50.674;17.954;2022-12-07T07:45:28;2.80;99.90
21255;DHT22;10785;50.674;17.954;2022-12-07T07:47:57;2.80;99.90
21255;DHT22;10785;50.674;17.954;2022-12-07T07:50:26;2.80;99.90
21255;DHT22;10785;50.674;17.954;2022-12-07T07:52:56;2.90;99.90
21255;DHT22;10785;50.674;17.954;2022-12-07T07:55:25;2.90;99.90
21255;DHT22;10785;50.674;17.954;2022-12-07T07:57:56;2.80;99.90
21255;DHT22;10785;50.674;17.954;2022-12-07T08:00:25;2.90;99.90
21255;DHT22;10785;50.674;17.954;2022-12-07T08:02:55;2.90;99.90
21255;DHT22;10785;50.674;17.954;2022-12-07T08:05:24;2.90;99.90
21255;DHT22;10785;50.674;17.954;2022-12-07T08:07:52;2.90;99.90
21255;DHT22;10785;50.674;17.954;2022-12-07T08:10:21;2.90;99.90
21255;DHT22;10785;50.674;17.954;2022-12-07T08:12:50;2.90;99.90
21255;DHT22;10785;50.674;17.954;2022-12-07T08:15:37;3.00;99.90
21255;DHT22;10785;50.674;17.954;2022-12-07T08:18:08;3.00;99.90
21255;DHT22;10785;50.674;17.954;2022-12-07T08:20:37;3.10;99.90
21255;DHT22;10785;50.674;17.954;2022-12-07T08:23:07;3.10;99.90
21255;DHT22;10785;50.674;17.954;2022-12-07T08:25:36;3.10;99.90
21255;DHT22;10785;50.674;17.954;2022-12-07T08:28:05;3.10;99.90
21255;DHT22;10785;50.674;17.954;2022-12-07T08:30:36;3.20;99.90
21255;DHT22;10785;50.674;17.954;2022-12-07T08:33:04;3.10;99.90
21255;DHT22;10785;50.674;17.954;2022-12-07T08:35:34;3.20;99.90
21255;DHT22;10785;50.674;17.954;2022-12-07T08:38:05;3.20;99.90
21255;DHT22;10785;50.674;17.954;2022-12-07T08:40:33;3.30;99.90
21255;DHT22;10785;50.674;17.954;2022-12-07T08:43:02;3.30;99.90
21255;DHT22;10785;50.674;17.954;2022-12-07T08:45:31;3.40;99.90
21255;DHT22;10785;50.674;17.954;2022-12-07T08:48:06;3.50;99.90
21255;DHT22;10785;50.674;17.954;2022-12-07T08:50:37;3.60;99.90
21255;DHT22;10785;50.674;17.954;2022-12-07T08:53:14;3.70;99.90
21255;DHT22;10785;50.674;17.954;2022-12-07T08:55:43;3.80;99.90
21255;DHT22;10785;50.674;17.954;2022-12-07T08:58:12;3.80;1.00
21255;DHT22;10785;50.674;17.954;2022-12-07T09:00:42;3.80;1.00
21255;DHT22;10785;50.674;17.954;2022-12-07T09:03:10;3.80;1.00
21255;DHT22;10785;50.674;17.954;2022-12-07T09:05:40;3.80;1.00
21255;DHT22;10785;50.674;17.954;2022-12-07T09:08:09;3.90;1.00
21255;DHT22;10785;50.674;17.954;2022-12-07T09:10:38;3.90;99.90
21255;DHT22;10785;50.674;17.954;2022-12-07T09:13:06;4.00;99.90
21255;DHT22;10785;50.674;17.954;2022-12-07T09:15:35;4.00;1.00
21255;DHT22;10785;50.674;17.954;2022-12-07T09:18:04;4.10;1.00
21255;DHT22;10785;50.674;17.954;2022-12-07T09:20:32;4.20;1.00
21255;DHT22;10785;50.674;17.954;2022-12-07T09:23:05;4.20;1.00
21255;DHT22;10785;50.674;17.954;2022-12-07T09:25:34;4.30;99.90
21255;DHT22;10785;50.674;17.954;2022-12-07T09:28:04;4.30;50.50
21255;DHT22;10785;50.674;17.954;2022-12-07T09:30:33;4.20;99.90
21255;DHT22;10785;50.674;17.954;2022-12-07T09:33:18;4.20;99.90
21255;DHT22;10785;50.674;17.954;2022-12-07T09:35:48;4.30;99.90
21255;DHT22;10785;50.674;17.954;2022-12-07T09:38:19;4.30;99.90
21255;DHT22;10785;50.674;17.954;2022-12-07T09:40:48;4.30;99.90
21255;DHT22;10785;50.674;17.954;2022-12-07T09:43:19;4.30;99.90
21255;DHT22;10785;50.674;17.954;2022-12-07T09:45:51;4.30;99.90
21255;DHT22;10785;50.674;17.954;2022-12-07T09:48:22;4.30;99.90
21255;DHT22;10785;50.674;17.954;2022-12-07T09:50:52;4.20;99.90
21255;DHT22;10785;50.674;17.954;2022-12-07T09:53:26;4.10;99.90
21255;DHT22;10785;50.674;17.954;2022-12-07T09:55:56;4.10;99.90
21255;DHT22;10785;50.674;17.954;2022-12-07T09:58:27;4.10;99.90
21255;DHT22;10785;50.674;17.954;2022-12-07T10:00:59;4.10;99.90
21255;DHT22;10785;50.674;17.954;2022-12-07T10:03:28;4.20;99.90
21255;DHT22;10785;50.674;17.954;2022-12-07T10:05:57;4.20;99.90
21255;DHT22;10785;50.674;17.954;2022-12-07T10:08:27;4.20;99.90
21255;DHT22;10785;50.674;17.954;2022-12-07T10:10:57;4.30;99.90
21255;DHT22;10785;50.674;17.954;2022-12-07T10:13:35;4.40;99.90
21255;DHT22;10785;50.674;17.954;2022-12-07T10:16:05;4.40;99.90
21255;DHT22;10785;50.674;17.954;2022-12-07T10:18:36;4.50;99.90
21255;DHT22;10785;50.674;17.954;2022-12-07T10:21:15;4.60;99.90
21255;DHT22;10785;50.674;17.954;2022-12-07T10:24:02;4.70;99.90
21255;DHT22;10785;50.674;17.954;2022-12-07T10:26:33;4.80;99.90
21255;DHT22;10785;50.674;17.954;2022-12-07T10:29:12;4.90;99.90
21255;DHT22;10785;50.674;17.954;2022-12-07T10:31:42;5.00;99.90
21255;DHT22;10785;50.674;17.954;2022-12-07T10:34:21;5.10;88.60
21255;DHT22;10785;50.674;17.954;2022-12-07T10:36:51;5.20;74.90
21255;DHT22;10785;50.674;17.954;2022-12-07T10:39:23;5.30;85.60
21255;DHT22;10785;50.674;17.954;2022-12-07T10:41:53;5.30;72.50
21255;DHT22;10785;50.674;17.954;2022-12-07T10:44:25;5.30;64.40
21255;DHT22;10785;50.674;17.954;2022-12-07T10:47:04;5.30;68.60
21255;DHT22;10785;50.674;17.954;2022-12-07T10:53:08;5.40;82.60
21255;DHT22;10785;50.674;17.954;2022-12-07T10:55:54;5.60;54.50
21255;DHT22;10785;50.674;17.954;2022-12-07T10:58:36;5.60;56.90
21255;DHT22;10785;50.674;17.954;2022-12-07T11:01:15;5.70;38.50
21255;DHT22;10785;50.674;17.954;2022-12-07T11:03:56;5.70;45.90
21255;DHT22;10785;50.674;17.954;2022-12-07T11:06:34;5.70;35.00
21255;DHT22;10785;50.674;17.954;2022-12-07T11:09:27;5.70;42.00
21255;DHT22;10785;50.674;17.954;2022-12-07T11:12:29;5.70;44.40
21255;DHT22;10785;50.674;17.954;2022-12-07T11:15:04;5.70;49.30
21255;DHT22;10785;50.674;17.954;2022-12-07T11:17:45;5.70;41.40
21255;DHT22;10785;50.674;17.954;2022-12-07T11:20:29;5.70;40.00
21255;DHT22;10785;50.674;17.954;2022-12-07T11:23:06;5.70;48.60
21255;DHT22;10785;50.674;17.954;2022-12-07T11:25:43;5.70;40.50
21255;DHT22;10785;50.674;17.954;2022-12-07T11:28:31;5.70;42.00
21255;DHT22;10785;50.674;17.954;2022-12-07T11:31:09;5.70;45.20
21255;DHT22;10785;50.674;17.954;2022-12-07T11:33:44;5.70;30.50
21255;DHT22;10785;50.674;17.954;2022-12-07T11:36:29;5.70;33.40
21255;DHT22;10785;50.674;17.954;2022-12-07T11:39:02;5.70;31.80
21255;DHT22;10785;50.674;17.954;2022-12-07T11:41:35;5.80;35.30
21255;DHT22;10785;50.674;17.954;2022-12-07T11:44:07;5.80;37.20
21255;DHT22;10785;50.674;17.954;2022-12-07T11:46:45;5.80;31.80
21255;DHT22;10785;50.674;17.954;2022-12-07T11:49:21;5.80;34.10
21255;DHT22;10785;50.674;17.954;2022-12-07T11:51:53;5.80;33.20
21255;DHT22;10785;50.674;17.954;2022-12-07T11:54:29;5.70;36.20
21255;DHT22;10785;50.674;17.954;2022-12-07T11:57:03;5.70;36.50
21255;DHT22;10785;50.674;17.954;2022-12-07T11:59:39;5.60;26.30
21255;DHT22;10785;50.674;17.954;2022-12-07T12:02:13;5.60;26.90
21255;DHT22;10785;50.674;17.954;2022-12-07T12:04:50;5.60;33.00
21255;DHT22;10785;50.674;17.954;2022-12-07T12:07:25;5.60;28.50
21255;DHT22;10785;50.674;17.954;2022-12-07T12:10:19;5.50;30.80
21255;DHT22;10785;50.674;17.954;2022-12-07T12:19:41;5.50;35.90
21255;DHT22;10785;50.674;17.954;2022-12-07T12:22:15;5.30;31.30
21255;DHT22;10785;50.674;17.954;2022-12-07T12:24:46;5.30;34.40
21255;DHT22;10785;50.674;17.954;2022-12-07T12:27:23;5.20;37.50
21255;DHT22;10785;50.674;17.954;2022-12-07T12:29:54;5.10;28.70
21255;DHT22;10785;50.674;17.954;2022-12-07T12:32:33;5.00;38.50
21255;DHT22;10785;50.674;17.954;2022-12-07T12:35:27;5.00;42.60
21255;DHT22;10785;50.674;17.954;2022-12-07T12:38:28;4.90;37.10
21255;DHT22;10785;50.674;17.954;2022-12-07T12:40:58;4.90;42.60
21255;DHT22;10785;50.674;17.954;2022-12-07T12:43:57;4.90;37.60
21255;DHT22;10785;50.674;17.954;2022-12-07T12:46:46;4.80;29.90
21255;DHT22;10785;50.674;17.954;2022-12-07T12:52:54;4.80;32.70
21255;DHT22;10785;50.674;17.954;2022-12-07T12:58:37;4.80;28.00
21255;DHT22;10785;50.674;17.954;2022-12-07T13:01:36;4.80;24.10
21255;DHT22;10785;50.674;17.954;2022-12-07T13:07:54;4.80;31.30
21255;DHT22;10785;50.674;17.954;2022-12-07T13:10:42;4.80;26.70
21255;DHT22;10785;50.674;17.954;2022-12-07T13:13:35;4.80;21.90
21255;DHT22;10785;50.674;17.954;2022-12-07T13:22:58;4.80;20.90
21255;DHT22;10785;50.674;17.954;2022-12-07T13:25:31;4.80;25.60
21255;DHT22;10785;50.674;17.954;2022-12-07T13:28:09;4.80;25.10
21255;DHT22;10785;50.674;17.954;2022-12-07T13:30:47;4.70;20.70
21255;DHT22;10785;50.674;17.954;2022-12-07T13:33:18;4.80;23.40
21255;DHT22;10785;50.674;17.954;2022-12-07T13:35:47;4.80;19.40
21255;DHT22;10785;50.674;17.954;2022-12-07T13:38:23;4.80;24.90
21255;DHT22;10785;50.674;17.954;2022-12-07T13:41:05;4.80;14.90
21255;DHT22;10785;50.674;17.954;2022-12-07T13:44:00;4.80;27.40
21255;DHT22;10785;50.674;17.954;2022-12-07T13:46:40;4.80;12.40
21255;DHT22;10785;50.674;17.954;2022-12-07T13:49:20;4.80;12.10
21255;DHT22;10785;50.674;17.954;2022-12-07T13:51:49;4.70;9.60
21255;DHT22;10785;50.674;17.954;2022-12-07T13:54:19;4.70;11.20
21255;DHT22;10785;50.674;17.954;2022-12-07T13:56:50;4.70;11.00
21255;DHT22;10785;50.674;17.954;2022-12-07T13:59:21;4.70;10.70
21255;DHT22;10785;50.674;17.954;2022-12-07T14:01:53;4.70;2.30
21255;DHT22;10785;50.674;17.954;2022-12-07T14:04:34;4.60;8.10
21255;DHT22;10785;50.674;17.954;2022-12-07T14:07:20;4.60;10.70
21255;DHT22;10785;50.674;17.954;2022-12-07T14:09:57;4.60;3.70
21255;DHT22;10785;50.674;17.954;2022-12-07T14:12:28;4.60;5.30
21255;DHT22;10785;50.674;17.954;2022-12-07T14:14:59;4.60;6.10
21255;DHT22;10785;50.674;17.954;2022-12-07T14:17:31;4.50;8.80
21255;DHT22;10785;50.674;17.954;2022-12-07T14:20:00;4.50;4.30
21255;DHT22;10785;50.674;17.954;2022-12-07T14:22:33;4.50;4.60
21255;DHT22;10785;50.674;17.954;2022-12-07T14:25:19;4.50;7.80
21255;DHT22;10785;50.674;17.954;2022-12-07T14:27:51;4.40;7.90
21255;DHT22;10785;50.674;17.954;2022-12-07T14:30:23;4.40;6.70
21255;DHT22;10785;50.674;17.954;2022-12-07T14:32:57;4.40;1.00
21255;DHT22;10785;50.674;17.954;2022-12-07T14:35:26;4.40;1.00
21255;DHT22;10785;50.674;17.954;2022-12-07T14:37:54;4.40;1.00
21255;DHT22;10785;50.674;17.954;2022-12-07T14:40:27;4.40;1.00
21255;DHT22;10785;50.674;17.954;2022-12-07T14:42:58;4.40;1.00
21255;DHT22;10785;50.674;17.954;2022-12-07T14:45:28;4.40;1.00
21255;DHT22;10785;50.674;17.954;2022-12-07T14:47:58;4.40;1.00
21255;DHT22;10785;50.674;17.954;2022-12-07T14:50:50;4.30;1.00
21255;DHT22;10785;50.674;17.954;2022-12-07T14:53:41;4.30;1.00
21255;DHT22;10785;50.674;17.954;2022-12-07T14:56:11;4.30;1.00
21255;DHT22;10785;50.674;17.954;2022-12-07T14:58:41;4.30;1.00
21255;DHT22;10785;50.674;17.954;2022-12-07T15:01:10;4.30;3.60
21255;DHT22;10785;50.674;17.954;2022-12-07T15:03:40;4.30;1.00
21255;DHT22;10785;50.674;17.954;2022-12-07T15:06:14;4.30;1.70
21255;DHT22;10785;50.674;17.954;2022-12-07T15:08:43;4.20;1.00
21255;DHT22;10785;50.674;17.954;2022-12-07T15:11:13;4.20;1.00
21255;DHT22;10785;50.674;17.954;2022-12-07T15:13:42;4.20;1.00
21255;DHT22;10785;50.674;17.954;2022-12-07T15:16:28;4.10;1.00
21255;DHT22;10785;50.674;17.954;2022-12-07T15:19:20;4.10;2.00
21255;DHT22;10785;50.674;17.954;2022-12-07T15:21:56;4.00;1.00
21255;DHT22;10785;50.674;17.954;2022-12-07T15:24:26;4.00;1.00
21255;DHT22;10785;50.674;17.954;2022-12-07T15:26:54;4.00;1.00
21255;DHT22;10785;50.674;17.954;2022-12-07T15:29:23;4.00;1.00
21255;DHT22;10785;50.674;17.954;2022-12-07T15:31:52;4.00;1.00
21255;DHT22;10785;50.674;17.954;2022-12-07T15:34:26;4.00;1.00
21255;DHT22;10785;50.674;17.954;2022-12-07T15:37:06;4.00;1.00
21255;DHT22;10785;50.674;17.954;2022-12-07T15:39:36;4.00;1.00
21255;DHT22;10785;50.674;17.954;2022-12-07T15:42:06;4.00;1.00
21255;DHT22;10785;50.674;17.954;2022-12-07T15:44:35;4.00;1.00
21255;DHT22;10785;50.674;17.954;2022-12-07T15:47:21;4.00;3.50
21255;DHT22;10785;50.674;17.954;2022-12-07T15:49:51;4.00;1.00
21255;DHT22;10785;50.674;17.954;2022-12-07T15:52:19;4.00;1.00
21255;DHT22;10785;50.674;17.954;2022-12-07T15:54:48;4.00;1.00
21255;DHT22;10785;50.674;17.954;2022-12-07T15:57:17;4.00;1.00
21255;DHT22;10785;50.674;17.954;2022-12-07T15:59:51;4.00;1.00
21255;DHT22;10785;50.674;17.954;2022-12-07T16:02:20;4.00;1.00
21255;DHT22;10785;50.674;17.954;2022-12-07T16:04:51;4.00;1.00
21255;DHT22;10785;50.674;17.954;2022-12-07T16:07:20;4.00;1.00
21255;DHT22;10785;50.674;17.954;2022-12-07T16:09:49;4.00;1.00
21255;DHT22;10785;50.674;17.954;2022-12-07T16:12:17;4.00;1.00
21255;DHT22;10785;50.674;17.954;2022-12-07T16:14:46;4.00;1.00
21255;DHT22;10785;50.674;17.954;2022-12-07T16:17:15;4.00;1.00
21255;DHT22;10785;50.674;17.954;2022-12-07T16:19:44;4.00;1.00
21255;DHT22;10785;50.674;17.954;2022-12-07T16:22:14;4.10;1.00
21255;DHT22;10785;50.674;17.954;2022-12-07T16:24:43;4.00;1.00
21255;DHT22;10785;50.674;17.954;2022-12-07T16:27:11;4.00;1.00
21255;DHT22;10785;50.674;17.954;2022-12-07T16:29:40;4.00;1.00
21255;DHT22;10785;50.674;17.954;2022-12-07T16:32:09;4.00;1.00
21255;DHT22;10785;50.674;17.954;2022-12-07T16:34:39;3.90;1.00